createdAt,value
2022-10-09T00:00:53.782Z,78.66
2022-10-09T00:01:53.758Z,78.45
2022-10-09T00:02:53.690Z,78.45
2022-10-09T00:03:53.692Z,78.45
2022-10-09T00:04:53.750Z,78.45
2022-10-09T00:05:53.677Z,78.35
2022-10-09T00:06:53.681Z,78.45
2022-10-09T00:07:53.662Z,78.35
2022-10-09T00:08:53.643Z,79.38
2022-10-09T00:09:53.627Z,79.21
2022-10-09T00:10:53.606Z,79.17
2022-10-09T00:11:53.600Z,78.90
2022-10-09T00:12:53.583Z,79.11
2022-10-09T00:13:53.595Z,79.11
2022-10-09T00:14:53.562Z,79.41
2022-10-09T00:15:53.558Z,79.52
2022-10-09T00:16:53.605Z,79.62
2022-10-09T00:17:53.531Z,79.31
2022-10-09T00:18:53.563Z,79.41
2022-10-09T00:19:53.514Z,79.93
2022-10-09T00:20:53.505Z,79.93
2022-10-09T00:21:53.499Z,79.93
2022-10-09T00:22:53.484Z,80.03
2022-10-09T00:23:53.495Z,79.72
2022-10-09T00:24:53.491Z,79.93
2022-10-09T00:25:53.454Z,80.13
2022-10-09T00:26:53.435Z,80.33
2022-10-09T00:27:53.437Z,80.54
2022-10-09T00:28:53.483Z,80.44
2022-10-09T00:29:53.413Z,80.17
2022-10-09T00:30:53.542Z,80.37
2022-10-09T00:31:53.395Z,80.37
2022-10-09T00:32:53.378Z,80.27
2022-10-09T00:33:53.378Z,80.27
2022-10-09T00:34:53.362Z,80.78
2022-10-09T00:35:53.352Z,80.68
2022-10-09T00:36:53.351Z,80.88
2022-10-09T00:37:53.357Z,81.09
2022-10-09T00:38:53.338Z,81.20
2022-10-09T00:39:53.314Z,81.40
2022-10-09T00:40:53.318Z,81.09
2022-10-09T00:41:53.322Z,81.54
2022-10-09T00:42:53.297Z,81.50
2022-10-09T00:43:53.258Z,81.20
2022-10-09T00:44:53.252Z,81.43
2022-10-09T00:45:53.357Z,81.43
2022-10-09T00:46:53.241Z,81.64
2022-10-09T00:47:53.231Z,81.64
2022-10-09T00:48:53.226Z,81.74
2022-10-09T00:49:53.234Z,81.64
2022-10-09T00:50:53.198Z,81.85
2022-10-09T00:51:53.193Z,81.85
2022-10-09T00:52:53.165Z,82.05
2022-10-09T00:53:53.161Z,82.36
2022-10-09T00:54:53.194Z,82.15
2022-10-09T00:55:53.139Z,82.36
2022-10-09T00:56:53.112Z,82.26
2022-10-09T00:57:53.112Z,82.56
2022-10-09T00:58:53.107Z,82.77
2022-10-09T00:59:53.088Z,82.77
2022-10-09T01:00:53.088Z,82.77
2022-10-09T01:01:53.256Z,82.67
2022-10-09T01:02:53.496Z,82.87
2022-10-09T01:03:53.063Z,82.97
2022-10-09T01:04:53.028Z,82.97
2022-10-09T01:05:53.027Z,83.28
2022-10-09T01:06:53.043Z,83.07
2022-10-09T01:07:53.012Z,83.07
2022-10-09T01:08:53.007Z,83.28
2022-10-09T01:09:52.988Z,83.07
2022-10-09T05:01:07.338Z,84.83
2022-10-09T05:02:08.067Z,85.24
2022-10-09T05:03:07.989Z,85.24
2022-10-09T05:04:07.978Z,85.14
2022-10-09T05:05:07.972Z,85.24
2022-10-09T05:06:07.989Z,85.44
2022-10-09T05:07:07.941Z,85.14
2022-10-09T05:08:07.931Z,85.03
2022-10-09T05:09:07.921Z,84.93
2022-10-09T05:10:07.915Z,84.93
2022-10-09T05:11:07.849Z,85.03
2022-10-09T05:12:07.912Z,85.14
2022-10-09T05:13:07.851Z,84.72
2022-10-09T05:14:07.812Z,85.03
2022-10-09T05:15:13.881Z,85.17
2022-10-09T05:16:07.871Z,85.28
2022-10-09T05:17:14.199Z,85.86
2022-10-09T05:18:07.794Z,85.34
2022-10-09T05:19:07.812Z,85.34
2022-10-09T05:20:07.764Z,85.14
2022-10-09T05:21:07.738Z,85.14
2022-10-09T05:22:07.735Z,85.34
2022-10-09T05:23:07.743Z,85.34
2022-10-09T05:24:10.321Z,85.34
2022-10-09T05:25:07.736Z,85.03
2022-10-09T05:26:07.680Z,84.93
2022-10-09T05:27:07.683Z,85.14
2022-10-09T05:28:07.706Z,85.14
2022-10-09T05:29:07.667Z,85.44
2022-10-09T05:30:07.635Z,85.44
2022-10-09T05:31:07.653Z,85.03
2022-10-09T05:32:07.663Z,84.93
2022-10-09T05:33:07.623Z,85.24
2022-10-09T05:34:08.383Z,84.83
2022-10-09T05:35:07.582Z,84.72
2022-10-09T05:36:07.572Z,84.83
2022-10-09T05:37:07.615Z,85.14
2022-10-09T05:38:07.551Z,84.83
2022-10-09T05:39:07.544Z,84.83
2022-10-09T05:40:07.535Z,85.24
2022-10-09T05:41:07.528Z,84.83
2022-10-09T05:42:07.527Z,84.62
2022-10-09T05:43:07.516Z,84.93
2022-10-09T05:44:07.487Z,84.93
2022-10-09T05:45:07.477Z,84.83
2022-10-09T05:46:07.528Z,85.03
2022-10-09T05:47:07.467Z,84.83
2022-10-09T05:48:07.459Z,84.72
2022-10-09T05:49:07.550Z,85.03
2022-10-09T05:50:07.424Z,85.03
2022-10-09T05:51:07.428Z,84.83
2022-10-09T05:52:07.414Z,84.83
2022-10-09T05:53:07.388Z,84.93
2022-10-09T05:54:07.378Z,84.93
2022-10-09T05:55:07.375Z,85.03
2022-10-09T05:56:07.359Z,85.14
2022-10-09T05:57:07.344Z,84.72
2022-10-09T05:58:07.353Z,85.24
2022-10-09T05:59:07.323Z,84.62
2022-10-09T06:00:07.317Z,84.52
2022-10-09T06:01:07.331Z,84.31
2022-10-09T06:02:07.339Z,84.72
2022-10-09T06:03:07.279Z,84.72
2022-10-09T06:04:07.306Z,84.93
2022-10-09T06:05:07.273Z,84.42
2022-10-09T06:06:07.256Z,84.52
2022-10-09T06:07:07.243Z,84.42
2022-10-09T06:08:07.232Z,84.21
2022-10-09T06:09:07.221Z,84.21
2022-10-09T06:10:07.223Z,84.42
2022-10-09T06:11:07.192Z,84.52
2022-10-09T06:12:07.180Z,84.62
2022-10-09T06:13:07.189Z,84.83
2022-10-09T06:14:07.166Z,84.42
2022-10-09T06:15:07.176Z,84.42
2022-10-09T06:16:07.165Z,84.62
2022-10-09T06:17:07.177Z,84.62
2022-10-09T06:18:07.129Z,84.77
2022-10-09T06:19:07.139Z,85.07
2022-10-09T06:20:07.117Z,84.97
2022-10-09T06:21:07.154Z,84.93
2022-10-09T06:22:07.082Z,85.03
2022-10-09T06:23:07.064Z,84.93
2022-10-09T06:24:07.169Z,84.93
2022-10-09T06:25:07.101Z,84.93
2022-10-09T06:26:07.028Z,84.62
2022-10-09T06:27:07.031Z,84.83
2022-10-09T06:28:07.031Z,84.72
2022-10-09T06:29:07.006Z,84.42
2022-10-09T06:30:07.003Z,84.62
2022-10-09T06:31:07.029Z,84.42
2022-10-09T06:32:06.979Z,84.42
2022-10-09T06:33:06.953Z,84.52
2022-10-09T06:34:06.963Z,84.31
2022-10-09T06:35:06.932Z,84.42
2022-10-09T06:36:10.242Z,84.52
2022-10-09T06:37:06.908Z,84.21
2022-10-09T06:38:06.904Z,84.52
2022-10-09T06:39:06.890Z,84.42
2022-10-09T06:40:06.897Z,84.52
2022-10-09T06:41:06.871Z,84.52
2022-10-09T06:42:06.879Z,84.31
2022-10-09T06:43:06.869Z,84.52
2022-10-09T06:44:07.638Z,84.77
2022-10-09T06:45:06.838Z,85.03
2022-10-09T06:46:06.827Z,84.83
2022-10-09T06:47:06.814Z,84.83
2022-10-09T06:48:06.788Z,85.03
2022-10-09T06:49:06.810Z,84.83
2022-10-09T06:50:06.803Z,84.72
2022-10-09T06:51:06.772Z,84.83
2022-10-09T06:52:06.746Z,84.72
2022-10-09T06:53:06.753Z,85.03
2022-10-09T06:54:06.722Z,84.69
2022-10-09T06:55:06.726Z,84.38
2022-10-09T06:56:06.699Z,84.27
2022-10-09T06:57:06.711Z,84.48
2022-10-09T06:58:06.676Z,84.27
2022-10-09T06:59:06.667Z,83.76
2022-10-09T07:00:06.664Z,83.65
2022-10-09T07:01:06.695Z,83.65
2022-10-09T07:02:06.701Z,83.86
2022-10-09T07:03:06.645Z,84.07
2022-10-09T07:04:06.625Z,83.86
2022-10-09T07:05:06.613Z,83.72
2022-10-09T07:06:06.606Z,83.41
2022-10-09T07:07:06.595Z,83.62
2022-10-09T07:08:06.611Z,83.62
2022-10-09T07:09:06.574Z,83.41
2022-10-09T07:10:06.559Z,83.62
2022-10-09T07:11:06.550Z,83.31
2022-10-09T07:12:06.542Z,83.41
2022-10-09T07:13:06.541Z,83.31
2022-10-09T07:14:06.511Z,83.11
2022-10-09T07:15:06.502Z,83.31
2022-10-09T07:16:06.564Z,83.41
2022-10-09T07:17:06.513Z,83.31
2022-10-09T07:18:06.461Z,83.11
2022-10-09T07:19:06.518Z,82.90
2022-10-09T07:20:06.451Z,83.00
2022-10-09T07:21:06.457Z,83.20
2022-10-09T07:22:06.424Z,83.11
2022-10-09T07:23:06.428Z,83.41
2022-10-09T07:24:06.396Z,83.41
2022-10-09T07:25:06.441Z,83.51
2022-10-09T07:26:06.398Z,83.72
2022-10-09T07:27:06.376Z,83.51
2022-10-09T07:28:06.445Z,83.27
2022-10-09T07:29:06.390Z,83.68
2022-10-09T07:30:06.351Z,83.58
2022-10-09T07:31:06.646Z,83.27
2022-10-09T07:32:10.324Z,83.37
2022-10-09T07:33:06.307Z,83.17
2022-10-09T07:34:06.331Z,82.86
2022-10-09T07:35:06.288Z,82.96
2022-10-09T07:36:06.290Z,82.96
2022-10-09T07:37:06.304Z,82.86
2022-10-09T07:38:06.276Z,83.06
2022-10-09T07:39:06.243Z,82.96
2022-10-09T07:40:06.243Z,82.92
2022-10-09T07:41:06.227Z,82.92
2022-10-09T07:42:06.235Z,82.82
2022-10-09T07:43:06.228Z,82.82
2022-10-09T07:44:06.193Z,82.82
2022-10-09T07:45:06.182Z,82.71
2022-10-09T07:46:06.211Z,82.82
2022-10-09T07:47:06.155Z,83.03
2022-10-09T07:48:06.164Z,83.13
2022-10-09T07:49:06.141Z,83.03
2022-10-09T07:50:06.124Z,83.13
2022-10-09T07:51:06.117Z,82.92
2022-10-09T07:52:06.095Z,82.68
2022-10-09T07:53:06.101Z,82.89
2022-10-09T07:54:06.119Z,82.99
2022-10-09T07:55:06.069Z,82.78
2022-10-09T07:56:06.056Z,82.89
2022-10-09T07:57:06.041Z,82.68
2022-10-09T07:58:06.054Z,82.78
2022-10-09T07:59:06.031Z,82.64
2022-10-09T08:00:06.036Z,82.33
2022-10-09T08:01:06.062Z,82.33
2022-10-09T08:02:06.106Z,81.92
2022-10-09T08:03:06.056Z,82.13
2022-10-09T08:04:06.009Z,82.13
2022-10-09T08:05:05.959Z,81.92
2022-10-09T08:06:05.942Z,81.82
2022-10-09T08:07:05.936Z,81.99
2022-10-09T08:08:05.940Z,81.88
2022-10-09T08:09:05.915Z,82.09
2022-10-09T08:10:05.920Z,81.68
2022-10-09T08:11:05.959Z,81.48
2022-10-09T08:12:05.885Z,81.57
2022-10-09T08:13:05.875Z,81.48
2022-10-09T08:14:05.863Z,81.13
2022-10-09T08:15:05.852Z,81.23
2022-10-09T08:16:05.869Z,81.34
2022-10-09T08:21:14.804Z,81.23
2022-10-09T08:22:15.768Z,81.23
2022-10-09T08:23:15.775Z,80.72
2022-10-09T08:24:15.749Z,80.72
2022-10-09T08:25:15.741Z,80.88
2022-10-09T08:26:15.732Z,80.68
2022-10-09T08:27:15.725Z,80.68
2022-10-09T08:28:15.745Z,80.47
2022-10-09T08:29:15.697Z,80.37
2022-10-09T08:30:15.676Z,80.47
2022-10-09T08:31:15.777Z,80.27
2022-10-09T08:32:15.660Z,80.27
2022-10-09T08:33:15.648Z,80.03
2022-10-09T08:34:15.637Z,80.13
2022-10-09T08:35:15.626Z,80.13
2022-10-09T08:36:15.611Z,79.93
2022-10-09T08:37:15.628Z,80.44
2022-10-09T08:38:37.651Z,80.03
2022-10-09T08:39:15.590Z,79.82
2022-10-09T08:40:15.577Z,80.03
2022-10-09T08:41:15.572Z,80.03
2022-10-09T08:42:15.558Z,80.03
2022-10-09T08:43:15.564Z,79.99
2022-10-09T08:44:15.535Z,79.89
2022-10-09T08:45:15.521Z,79.58
2022-10-09T08:46:19.825Z,79.89
2022-10-09T08:47:15.510Z,79.68
2022-10-09T08:48:15.497Z,79.79
2022-10-09T08:49:15.482Z,79.27
2022-10-09T08:50:15.469Z,79.17
2022-10-09T08:51:15.459Z,79.27
2022-10-09T08:52:15.459Z,79.68
2022-10-09T08:53:15.441Z,79.68
2022-10-09T08:54:15.454Z,79.34
2022-10-09T08:55:15.418Z,79.34
2022-10-09T08:56:15.406Z,79.24
2022-10-09T08:57:15.413Z,79.24
2022-10-09T08:58:15.379Z,79.03
2022-10-09T08:59:15.374Z,79.13
2022-10-09T09:00:15.373Z,79.20
2022-10-09T09:01:16.396Z,78.69
2022-10-09T09:02:15.355Z,77.76
2022-10-09T09:03:15.405Z,77.67
2022-10-09T09:04:15.348Z,78.08
2022-10-09T09:05:15.308Z,77.94
2022-10-09T09:06:15.292Z,77.22
2022-10-09T09:07:15.290Z,77.32
2022-10-09T09:08:15.270Z,77.12
2022-10-09T09:09:15.310Z,77.42
2022-10-09T09:10:15.255Z,77.32
2022-10-09T09:11:19.359Z,77.32
2022-10-09T09:12:15.250Z,77.53
2022-10-09T09:13:15.232Z,77.29
2022-10-09T09:14:15.245Z,77.59
2022-10-09T09:15:15.206Z,77.29
2022-10-09T09:16:15.214Z,77.29
2022-10-09T09:17:15.183Z,77.70
2022-10-09T09:18:15.170Z,77.19
2022-10-09T09:19:15.188Z,77.19
2022-10-09T09:20:15.153Z,76.88
2022-10-09T09:21:15.171Z,76.84
2022-10-09T09:22:15.131Z,77.15
2022-10-09T09:23:15.167Z,77.15
2022-10-09T09:24:15.120Z,76.94
2022-10-09T09:25:15.142Z,76.84
2022-10-09T09:26:15.098Z,76.64
2022-10-09T09:27:15.083Z,76.23
2022-10-09T09:28:15.146Z,76.64
2022-10-09T09:29:15.070Z,76.29
2022-10-09T09:30:15.074Z,76.19
2022-10-09T09:31:15.158Z,75.78
2022-10-09T09:32:15.019Z,76.09
2022-10-09T09:33:15.013Z,76.19
2022-10-09T09:34:15.018Z,75.58
2022-10-09T09:35:14.996Z,75.68
2022-10-09T09:36:14.983Z,75.58
2022-10-09T09:37:14.986Z,75.48
2022-10-09T09:38:14.951Z,75.17
2022-10-09T09:41:14.930Z,75.24
2022-10-09T09:42:14.955Z,75.24
2022-10-09T09:43:14.909Z,75.34
2022-10-09T09:44:14.901Z,75.44
2022-10-09T09:45:14.887Z,75.24
2022-10-09T09:46:14.919Z,75.75
2022-10-09T09:47:14.867Z,75.04
2022-10-09T09:48:14.868Z,74.63
2022-10-09T09:49:14.851Z,74.79
2022-10-09T09:50:35.150Z,74.49
2022-10-09T09:51:30.484Z,74.18
2022-10-09T09:52:14.812Z,74.29
2022-10-09T09:53:15.301Z,74.38
2022-10-09T09:54:14.786Z,74.90
2022-10-09T09:55:14.777Z,74.08
2022-10-09T09:56:14.776Z,73.43
2022-10-09T09:57:19.490Z,73.84
2022-10-09T09:58:14.750Z,73.94
2022-10-09T09:59:14.792Z,73.43
2022-10-09T10:00:14.719Z,73.43
2022-10-09T10:01:14.796Z,73.64
2022-10-09T10:02:14.813Z,73.64
2022-10-09T10:03:14.696Z,73.54
2022-10-09T10:04:14.685Z,73.23
2022-10-09T10:05:14.702Z,72.99
2022-10-09T10:06:14.653Z,72.79
2022-10-09T10:07:14.656Z,72.79
2022-10-09T10:08:14.650Z,73.10
2022-10-09T10:09:14.621Z,72.89
2022-10-09T10:10:14.623Z,73.10
2022-10-09T10:11:14.601Z,72.08
2022-10-09T10:12:14.607Z,71.36
2022-10-09T10:13:14.591Z,71.97
2022-10-09T10:14:14.569Z,71.87
2022-10-09T10:15:14.568Z,72.48
2022-10-09T10:16:14.695Z,71.77
2022-10-09T10:17:16.452Z,71.73
2022-10-09T10:18:14.524Z,71.63
2022-10-09T10:19:14.519Z,72.04
2022-10-09T10:20:14.507Z,71.23
2022-10-09T10:21:14.493Z,71.12
2022-10-09T10:22:14.507Z,71.43
2022-10-09T10:23:14.473Z,71.63
2022-10-09T10:24:14.502Z,71.02
2022-10-09T10:25:16.130Z,71.33
2022-10-09T10:26:14.445Z,71.33
2022-10-09T10:27:14.461Z,70.72
2022-10-09T10:28:14.456Z,71.12
2022-10-09T10:29:14.415Z,70.38
2022-10-09T10:30:14.406Z,70.38
2022-10-09T10:31:14.420Z,70.17
2022-10-09T10:32:14.395Z,70.48
2022-10-09T10:33:14.386Z,69.97
2022-10-09T10:34:14.358Z,69.36
2022-10-09T10:35:14.353Z,69.46
2022-10-09T10:36:14.338Z,70.38
2022-10-09T10:37:14.345Z,70.38
2022-10-09T10:38:14.350Z,70.17
2022-10-09T10:39:14.307Z,69.97
2022-10-09T10:40:14.303Z,70.14
2022-10-09T10:41:14.290Z,69.32
2022-10-09T10:42:14.291Z,68.92
2022-10-09T10:43:14.275Z,68.51
2022-10-09T10:44:14.250Z,68.21
2022-10-09T10:45:14.245Z,68.07
2022-10-09T10:46:14.313Z,68.48
2022-10-09T10:47:14.216Z,68.88
2022-10-09T10:48:14.208Z,67.66
2022-10-09T10:49:14.211Z,67.77
2022-10-09T10:50:14.187Z,67.26
2022-10-09T10:51:14.176Z,67.26
2022-10-09T10:52:14.188Z,67.66
2022-10-09T10:53:14.160Z,66.96
2022-10-09T10:54:14.148Z,66.85
2022-10-09T10:55:14.146Z,67.13
2022-10-09T10:56:14.126Z,67.43
2022-10-09T10:57:14.122Z,66.31
2022-10-09T10:58:14.146Z,67.43
2022-10-09T10:59:14.104Z,67.02
2022-10-09T11:00:14.091Z,67.63
2022-10-09T11:01:14.163Z,66.92
2022-10-09T11:02:14.087Z,66.92
2022-10-09T11:03:14.084Z,67.13
2022-10-09T11:04:14.043Z,66.28
2022-10-09T11:05:14.024Z,66.58
2022-10-09T11:06:14.039Z,66.28
2022-10-09T11:07:14.006Z,66.89
2022-10-09T11:08:14.018Z,65.97
2022-10-09T11:09:14.002Z,66.69
2022-10-09T11:10:13.979Z,66.38
2022-10-09T11:11:13.980Z,66.18
2022-10-09T11:12:24.727Z,66.08
2022-10-09T11:13:13.962Z,65.67
2022-10-09T11:14:19.287Z,65.36
2022-10-09T11:15:13.925Z,65.74
2022-10-09T11:16:13.987Z,65.33
2022-10-09T11:17:14.329Z,64.93
2022-10-09T11:18:13.894Z,65.54
2022-10-09T11:19:13.880Z,65.10
2022-10-09T11:20:13.889Z,65.10
2022-10-09T11:21:13.873Z,64.79
2022-10-09T11:22:13.886Z,63.88
2022-10-09T11:23:13.836Z,63.98
2022-10-09T11:24:13.823Z,64.06
2022-10-09T11:25:13.815Z,64.36
2022-10-09T11:26:13.800Z,63.85
2022-10-09T11:27:13.791Z,63.45
2022-10-09T11:28:13.844Z,63.65
2022-10-09T11:29:13.768Z,63.04
2022-10-09T11:30:13.763Z,62.13
2022-10-09T11:31:13.829Z,62.02
2022-10-09T11:32:13.855Z,62.10
2022-10-09T11:33:13.728Z,61.69
2022-10-09T11:34:13.738Z,62.20
2022-10-09T11:35:13.704Z,61.99
2022-10-09T11:36:13.718Z,60.55
2022-10-09T11:37:13.687Z,60.35
2022-10-09T11:38:13.687Z,60.44
2022-10-09T11:39:13.657Z,60.75
2022-10-09T11:40:13.658Z,60.95
2022-10-09T11:41:13.645Z,60.85
2022-10-09T11:42:13.651Z,62.04
2022-10-09T11:43:13.624Z,62.04
2022-10-09T11:44:13.615Z,61.02
2022-10-09T11:45:13.595Z,61.94
2022-10-09T11:46:13.705Z,60.62
2022-10-09T11:47:13.600Z,61.30
2022-10-09T11:48:13.565Z,60.89
2022-10-09T11:49:13.564Z,61.10
2022-10-09T11:50:13.550Z,60.26
2022-10-09T11:51:13.567Z,60.86
2022-10-09T11:52:13.528Z,60.16
2022-10-09T11:53:13.525Z,59.55
2022-10-09T11:54:13.744Z,59.14
2022-10-09T11:55:13.490Z,58.20
2022-10-09T11:56:13.479Z,58.71
2022-10-09T11:57:15.456Z,58.81
2022-10-09T11:58:13.475Z,57.70
2022-10-09T11:59:13.467Z,58.28
2022-10-09T12:00:13.442Z,59.19
2022-10-09T12:01:13.458Z,57.47
2022-10-09T12:02:13.469Z,57.57
2022-10-09T12:03:13.409Z,57.07
2022-10-09T12:04:13.393Z,57.95
2022-10-09T12:05:13.400Z,57.34
2022-10-09T12:06:13.372Z,57.14
2022-10-09T12:07:13.361Z,56.84
2022-10-09T12:08:16.821Z,56.61
2022-10-09T12:09:13.356Z,55.69
2022-10-09T12:10:13.333Z,56.81
2022-10-09T12:11:13.362Z,55.60
2022-10-09T12:12:13.343Z,56.40
2022-10-09T12:13:13.304Z,56.88
2022-10-09T12:14:16.084Z,55.67
2022-10-09T12:15:13.285Z,55.47
2022-10-09T12:16:13.299Z,54.66
2022-10-09T12:17:13.281Z,55.07
2022-10-09T12:18:13.257Z,54.83
2022-10-09T12:19:13.241Z,55.24
2022-10-09T12:20:13.243Z,54.53
2022-10-09T12:21:13.210Z,54.00
2022-10-09T12:22:13.215Z,54.10
2022-10-09T12:23:29.012Z,54.00
2022-10-09T12:24:13.204Z,53.00
2022-10-09T12:25:13.162Z,53.38
2022-10-09T12:26:13.166Z,53.67
2022-10-09T12:27:13.152Z,53.38
2022-10-09T12:28:13.195Z,53.47
2022-10-09T12:29:13.145Z,53.38
2022-10-09T12:30:13.256Z,54.05
2022-10-09T12:31:13.221Z,53.34
2022-10-09T12:32:13.112Z,53.45
2022-10-09T12:33:13.088Z,53.65
2022-10-09T12:34:13.075Z,52.34
2022-10-09T12:35:13.082Z,53.14
2022-10-09T12:36:13.057Z,52.31
2022-10-09T12:37:13.041Z,53.63
2022-10-09T12:38:13.051Z,53.12
2022-10-09T12:39:13.021Z,52.22
2022-10-09T12:40:13.065Z,52.42
2022-10-09T12:41:15.642Z,52.62
2022-10-09T12:42:13.015Z,52.01
2022-10-09T12:43:12.972Z,51.99
2022-10-09T12:44:12.971Z,52.39
2022-10-09T12:45:12.961Z,51.59
2022-10-09T12:46:13.041Z,51.48
2022-10-09T12:47:12.953Z,51.59
2022-10-09T12:48:12.983Z,51.38
2022-10-09T12:49:12.912Z,51.38
2022-10-09T12:50:12.954Z,50.76
2022-10-09T12:51:12.887Z,49.75
2022-10-09T12:52:12.880Z,51.36
2022-10-09T12:53:12.873Z,51.36
2022-10-09T12:54:12.864Z,50.85
2022-10-09T12:55:12.851Z,49.35
2022-10-09T12:56:12.868Z,49.35
2022-10-09T12:57:12.835Z,49.44
2022-10-09T12:58:12.920Z,51.06
2022-10-09T12:59:12.829Z,49.42
2022-10-09T13:00:12.861Z,50.53
2022-10-09T13:01:12.938Z,50.53
2022-10-09T13:02:12.922Z,50.63
2022-10-09T13:03:12.759Z,48.21
2022-10-09T13:04:12.775Z,49.02
2022-10-09T13:05:12.752Z,47.49
2022-10-09T13:06:12.730Z,46.38
2022-10-09T13:07:12.713Z,47.19
2022-10-09T13:08:12.711Z,45.67
2022-10-09T13:09:12.696Z,44.47
2022-10-09T13:10:12.729Z,43.26
2022-10-09T13:11:12.681Z,44.45
2022-10-09T13:12:12.773Z,43.14
2022-10-09T13:13:12.663Z,44.04
2022-10-09T13:14:12.655Z,42.52
2022-10-09T13:15:15.909Z,42.72
2022-10-09T13:16:12.803Z,42.61
2022-10-09T13:17:12.617Z,42.72
2022-10-09T13:18:12.619Z,44.02
2022-10-09T13:19:12.627Z,43.32
2022-10-09T13:20:12.647Z,43.52
2022-10-09T13:21:12.579Z,43.50
2022-10-09T13:22:12.567Z,42.80
2022-10-09T13:23:12.554Z,40.89
2022-10-09T13:24:12.545Z,40.79
2022-10-09T13:25:12.539Z,43.20
2022-10-09T13:26:12.541Z,42.49
2022-10-09T13:27:12.541Z,42.40
2022-10-09T13:28:12.551Z,43.60
2022-10-09T13:29:12.491Z,40.08
2022-10-09T13:30:12.481Z,41.09
2022-10-09T13:31:12.487Z,42.38
2022-10-09T13:32:12.458Z,40.97
2022-10-09T13:33:12.468Z,40.97
2022-10-09T13:34:12.440Z,40.26
2022-10-09T13:35:12.425Z,42.18
2022-10-09T13:36:12.406Z,40.47
2022-10-09T13:37:12.405Z,41.27
2022-10-09T13:38:12.394Z,40.17
2022-10-09T13:39:12.399Z,40.97
2022-10-09T13:40:12.372Z,41.07
2022-10-09T13:41:12.391Z,39.25
2022-10-09T13:42:12.353Z,39.75
2022-10-09T13:43:12.367Z,40.05
2022-10-09T13:44:12.357Z,40.05
2022-10-09T13:45:12.328Z,40.45
2022-10-09T13:46:12.381Z,39.95
2022-10-09T13:47:12.302Z,39.12
2022-10-09T13:48:12.284Z,38.92
2022-10-09T13:49:12.271Z,39.42
2022-10-09T13:50:12.262Z,39.03
2022-10-09T13:51:12.268Z,40.13
2022-10-09T13:52:12.246Z,38.02
2022-10-09T13:53:12.233Z,37.92
2022-10-09T13:54:12.229Z,38.62
2022-10-09T13:55:12.211Z,40.03
2022-10-09T13:56:12.228Z,39.83
2022-10-09T13:57:12.188Z,39.23
2022-10-09T13:58:12.190Z,40.13
2022-10-09T13:59:12.178Z,39.03
2022-10-09T14:00:12.204Z,40.23
2022-10-09T14:01:12.199Z,41.33
2022-10-09T14:02:12.139Z,39.12
2022-10-09T14:03:12.123Z,38.90
2022-10-09T14:04:12.122Z,38.20
2022-10-09T14:05:12.119Z,38.51
2022-10-09T14:06:12.094Z,37.40
2022-10-09T14:07:12.088Z,38.70
2022-10-09T14:08:12.071Z,38.70
2022-10-09T14:09:12.066Z,38.29
2022-10-09T14:10:12.065Z,38.18
2022-10-09T14:11:12.082Z,38.39
2022-10-09T14:12:12.060Z,38.39
2022-10-09T14:13:12.019Z,37.48
2022-10-09T14:14:12.011Z,38.18
2022-10-09T14:15:12.040Z,39.59
2022-10-09T14:16:11.998Z,37.88
2022-10-09T14:17:12.009Z,37.59
2022-10-09T14:18:11.964Z,37.98
2022-10-09T14:19:11.953Z,39.09
2022-10-09T14:20:11.947Z,39.18
2022-10-09T14:21:15.052Z,38.68
2022-10-09T14:22:11.973Z,39.29
2022-10-09T14:23:11.945Z,38.77
2022-10-09T14:24:11.906Z,39.07
2022-10-09T14:25:11.889Z,39.87
2022-10-09T14:26:11.896Z,39.47
2022-10-09T14:27:11.867Z,40.27
2022-10-09T14:28:11.934Z,38.77
2022-10-09T14:29:11.875Z,38.87
2022-10-09T14:30:11.878Z,38.77
2022-10-09T14:31:11.823Z,39.39
2022-10-09T14:33:05.559Z,38.47
2022-10-09T14:34:06.532Z,37.77
2022-10-09T14:35:06.558Z,37.46
2022-10-09T14:36:06.541Z,37.46
2022-10-09T14:37:18.492Z,38.27
2022-10-09T14:38:06.545Z,36.07
2022-10-09T14:39:06.479Z,36.57
2022-10-09T14:40:06.479Z,36.85
2022-10-09T14:41:06.509Z,38.95
2022-10-09T14:42:06.457Z,38.65
2022-10-09T14:43:06.469Z,39.75
2022-10-09T14:44:06.437Z,39.15
2022-10-09T14:45:06.425Z,37.66
2022-10-09T14:46:06.441Z,38.67
2022-10-09T14:47:06.398Z,39.17
2022-10-09T14:48:06.397Z,39.57
2022-10-09T14:49:06.382Z,39.47
2022-10-09T14:50:06.369Z,37.96
2022-10-09T14:51:06.353Z,37.07
2022-10-09T14:52:06.372Z,37.16
2022-10-09T14:53:06.355Z,37.96
2022-10-09T14:54:06.322Z,36.46
2022-10-09T14:55:06.309Z,36.87
2022-10-09T14:56:06.303Z,37.68
2022-10-09T14:57:06.295Z,37.88
2022-10-09T14:58:06.330Z,37.59
2022-10-09T14:59:06.269Z,38.68
2022-10-09T15:00:06.282Z,36.78
2022-10-09T15:01:06.272Z,36.98
2022-10-09T15:02:06.242Z,37.98
2022-10-09T15:03:06.219Z,37.48
2022-10-09T15:04:06.322Z,37.18
2022-10-09T15:05:06.206Z,38.18
2022-10-09T15:06:06.207Z,36.38
2022-10-09T15:07:06.193Z,36.88
2022-10-09T15:08:06.173Z,37.48
2022-10-09T15:09:06.453Z,35.88
2022-10-09T15:10:06.182Z,36.18
2022-10-09T15:11:06.175Z,36.68
2022-10-09T15:12:06.139Z,36.28
2022-10-09T15:13:06.124Z,36.16
2022-10-09T15:14:06.113Z,36.96
2022-10-09T15:15:06.141Z,35.96
2022-10-09T15:16:06.096Z,36.16
2022-10-09T15:17:06.079Z,36.87
2022-10-09T15:18:06.065Z,36.36
2022-10-09T15:19:06.061Z,39.57
2022-10-09T15:20:06.053Z,37.37
2022-10-09T15:21:06.051Z,38.07
2022-10-09T15:22:06.061Z,36.87
2022-10-09T15:23:06.029Z,36.07
2022-10-09T15:24:06.010Z,36.46
2022-10-09T15:25:05.996Z,35.86
2022-10-09T15:26:05.989Z,38.97
2022-10-09T15:27:05.973Z,38.17
2022-10-09T15:28:06.045Z,36.26
2022-10-09T15:29:05.965Z,37.27
2022-10-09T15:30:05.952Z,36.08
2022-10-09T15:31:05.933Z,38.99
2022-10-09T15:32:05.914Z,38.99
2022-10-09T15:33:05.921Z,36.48
2022-10-09T15:34:05.901Z,36.78
2022-10-09T15:35:05.890Z,37.79
2022-10-09T15:36:05.871Z,36.48
2022-10-09T15:37:05.872Z,37.68
2022-10-09T15:38:05.857Z,36.88
2022-10-09T15:39:05.908Z,39.18
2022-10-09T15:40:05.831Z,36.78
2022-10-09T15:41:05.830Z,38.39
2022-10-09T15:42:05.817Z,35.98
2022-10-09T15:43:05.802Z,36.68
2022-10-09T15:44:05.818Z,36.78
2022-10-09T15:45:05.779Z,36.96
2022-10-09T15:46:05.774Z,37.07
2022-10-09T15:47:05.771Z,36.76
2022-10-09T15:48:05.748Z,36.18
2022-10-09T15:49:05.746Z,36.98
2022-10-09T15:50:05.812Z,38.29
2022-10-09T15:51:05.717Z,38.29
2022-10-09T15:52:05.704Z,39.59
2022-10-09T15:53:05.698Z,38.70
2022-10-09T15:54:05.692Z,38.10
2022-10-09T15:55:05.674Z,37.90
2022-10-09T15:56:05.701Z,39.91
2022-10-09T15:57:05.655Z,39.73
2022-10-09T15:58:05.651Z,38.53
2022-10-09T15:59:05.636Z,38.32
2022-10-09T16:00:05.703Z,38.92
2022-10-09T16:01:05.607Z,39.04
2022-10-09T16:02:05.605Z,39.95
2022-10-09T16:03:05.607Z,41.15
2022-10-09T16:04:05.595Z,39.14
2022-10-09T16:05:05.566Z,38.66
2022-10-09T16:06:05.575Z,39.06
2022-10-09T16:07:05.549Z,40.47
2022-10-09T16:08:05.549Z,40.87
2022-10-09T16:09:05.548Z,40.87
2022-10-09T16:10:05.632Z,40.48
2022-10-09T16:11:05.603Z,41.19
2022-10-09T16:12:05.501Z,40.08
2022-10-09T16:13:05.481Z,39.58
2022-10-09T16:14:05.498Z,40.11
2022-10-09T16:15:05.464Z,40.20
2022-10-09T16:16:05.460Z,40.41
2022-10-09T16:17:10.330Z,40.62
2022-10-09T16:18:05.446Z,39.82
2022-10-09T16:19:05.418Z,40.12
2022-10-09T16:20:05.491Z,41.13
2022-10-09T16:21:05.398Z,39.74
2022-10-09T16:22:05.395Z,41.45
2022-10-09T16:23:05.375Z,41.95
2022-10-09T16:24:05.369Z,41.45
2022-10-09T16:25:05.371Z,40.84
2022-10-09T16:26:05.347Z,42.35
2022-10-09T16:27:05.335Z,40.97
2022-10-09T16:28:05.408Z,42.88
2022-10-09T16:29:05.322Z,42.27
2022-10-09T16:30:05.358Z,42.58
2022-10-09T16:31:05.292Z,42.10
2022-10-09T16:32:05.287Z,42.50
2022-10-09T16:33:08.041Z,43.00
2022-10-09T16:34:05.285Z,43.30
2022-10-09T16:35:05.296Z,43.22
2022-10-09T16:36:05.257Z,42.82
2022-10-09T16:37:05.228Z,42.82
2022-10-09T16:38:05.239Z,43.62
2022-10-09T16:39:05.209Z,43.14
2022-10-09T16:40:05.260Z,43.65
2022-10-09T16:41:05.307Z,44.45
2022-10-09T16:42:05.174Z,43.74
2022-10-09T16:43:05.164Z,44.67
2022-10-09T16:44:05.171Z,44.87
2022-10-09T16:45:05.185Z,44.57
2022-10-09T16:46:05.128Z,44.47
2022-10-09T16:47:05.136Z,44.59
2022-10-09T16:48:05.101Z,45.40
2022-10-09T16:49:05.111Z,45.50
2022-10-09T16:50:05.221Z,45.20